createdAt,value
2022-12-31T00:01:19.279Z,100.00
2022-12-31T00:03:46.637Z,100.00
2022-12-31T00:06:23.901Z,100.00
2022-12-31T00:08:51.631Z,100.00
2022-12-31T00:11:18.854Z,100.00
2022-12-31T00:13:47.099Z,100.00
2022-12-31T00:16:17.841Z,100.00
2022-12-31T00:18:50.442Z,100.00
2022-12-31T00:21:17.984Z,100.00
2022-12-31T00:23:44.874Z,100.00
2022-12-31T00:26:17.133Z,100.00
2022-12-31T00:28:44.672Z,100.00
2022-12-31T00:31:17.511Z,100.00
2022-12-31T00:33:45.015Z,100.00
2022-12-31T00:36:17.203Z,100.00
2022-12-31T00:38:45.770Z,100.00
2022-12-31T00:41:13.005Z,100.00
2022-12-31T00:43:39.521Z,100.00
2022-12-31T00:46:07.400Z,100.00
2022-12-31T00:48:35.064Z,100.00
2022-12-31T00:51:03.004Z,100.00
2022-12-31T00:53:29.948Z,100.00
2022-12-31T00:56:07.273Z,100.00
2022-12-31T00:58:35.244Z,100.00
2022-12-31T01:01:14.905Z,100.00
2022-12-31T01:03:41.900Z,100.00
2022-12-31T01:06:09.044Z,100.00
2022-12-31T01:08:35.645Z,100.00
2022-12-31T01:11:24.153Z,100.00
2022-12-31T01:14:04.953Z,100.00
2022-12-31T01:16:43.517Z,100.00
2022-12-31T01:19:13.493Z,100.00
2022-12-31T01:21:41.955Z,100.00
2022-12-31T01:24:10.433Z,100.00
2022-12-31T01:26:37.454Z,100.00
2022-12-31T01:29:05.805Z,100.00
2022-12-31T01:31:33.030Z,100.00
2022-12-31T01:33:59.512Z,100.00
2022-12-31T01:36:29.536Z,100.00
2022-12-31T01:38:58.548Z,100.00
2022-12-31T01:41:30.083Z,100.00
2022-12-31T01:44:23.475Z,100.00
2022-12-31T01:46:58.307Z,100.00
2022-12-31T01:49:40.037Z,100.00
2022-12-31T01:52:06.447Z,100.00
2022-12-31T01:54:39.907Z,100.00
2022-12-31T01:57:08.780Z,100.00
2022-12-31T01:59:36.041Z,100.00
2022-12-31T02:02:03.326Z,100.00
2022-12-31T02:04:30.220Z,100.00
2022-12-31T02:07:02.919Z,100.00
2022-12-31T02:09:31.412Z,100.00
2022-12-31T02:11:57.922Z,100.00
2022-12-31T02:14:28.792Z,100.00
2022-12-31T02:17:25.973Z,100.00
2022-12-31T02:20:28.982Z,100.00
2022-12-31T02:23:20.501Z,100.00
2022-12-31T02:26:12.907Z,100.00
2022-12-31T02:28:51.688Z,100.00
2022-12-31T02:31:44.502Z,100.00
2022-12-31T02:34:20.542Z,100.00
2022-12-31T02:36:50.191Z,100.00
2022-12-31T02:39:17.048Z,100.00
2022-12-31T02:41:50.862Z,100.00
2022-12-31T02:44:28.146Z,100.00
2022-12-31T02:47:03.810Z,100.00
2022-12-31T02:49:58.201Z,100.00
2022-12-31T02:52:42.590Z,100.00
2022-12-31T02:55:29.409Z,100.00
2022-12-31T02:58:08.058Z,100.00
2022-12-31T03:01:00.094Z,100.00
2022-12-31T03:03:27.827Z,100.00
2022-12-31T03:05:56.501Z,100.00
2022-12-31T03:08:25.309Z,100.00
2022-12-31T03:10:52.233Z,100.00
2022-12-31T03:13:18.881Z,100.00
2022-12-31T03:15:45.319Z,100.00
2022-12-31T03:18:17.307Z,100.00
2022-12-31T03:21:08.904Z,100.00
2022-12-31T03:23:42.132Z,100.00
2022-12-31T03:26:12.392Z,100.00
2022-12-31T03:28:42.479Z,100.00
2022-12-31T03:31:09.381Z,100.00
2022-12-31T03:33:39.546Z,100.00
2022-12-31T03:36:09.798Z,100.00
2022-12-31T03:38:36.461Z,100.00
2022-12-31T03:41:03.327Z,100.00
2022-12-31T03:43:29.811Z,100.00
2022-12-31T03:45:59.639Z,100.00
2022-12-31T03:48:26.354Z,100.00
2022-12-31T03:50:52.923Z,100.00
2022-12-31T03:53:19.455Z,100.00
2022-12-31T03:55:49.964Z,100.00
2022-12-31T03:58:16.527Z,100.00
2022-12-31T04:00:43.120Z,100.00
2022-12-31T04:03:09.658Z,100.00
2022-12-31T04:05:36.274Z,100.00
2022-12-31T04:08:03.014Z,100.00
2022-12-31T04:10:29.500Z,100.00
2022-12-31T04:12:56.013Z,100.00
2022-12-31T04:15:22.607Z,100.00
2022-12-31T04:17:49.342Z,100.00
2022-12-31T04:20:16.458Z,100.00
2022-12-31T04:22:43.928Z,100.00
2022-12-31T04:25:11.363Z,100.00
2022-12-31T04:27:40.230Z,100.00
2022-12-31T04:30:08.168Z,100.00
2022-12-31T04:32:34.739Z,100.00
2022-12-31T04:35:01.262Z,100.00
2022-12-31T04:37:27.751Z,100.00
2022-12-31T04:39:54.186Z,100.00
2022-12-31T04:42:20.687Z,100.00
2022-12-31T04:44:47.186Z,100.00
2022-12-31T04:47:17.409Z,100.00
2022-12-31T04:49:46.651Z,100.00
2022-12-31T04:52:13.145Z,100.00
2022-12-31T04:54:39.538Z,100.00
2022-12-31T04:57:06.385Z,100.00
2022-12-31T04:59:33.006Z,100.00
2022-12-31T05:01:59.623Z,100.00
2022-12-31T05:04:26.481Z,100.00
2022-12-31T05:06:53.052Z,100.00
2022-12-31T05:09:19.711Z,100.00
2022-12-31T05:11:46.203Z,100.00
2022-12-31T05:14:12.634Z,100.00
2022-12-31T05:16:39.181Z,100.00
2022-12-31T05:19:06.458Z,100.00
2022-12-31T05:21:33.163Z,100.00
2022-12-31T05:23:59.636Z,100.00
2022-12-31T05:26:26.254Z,100.00
2022-12-31T05:28:52.810Z,100.00
2022-12-31T05:31:19.375Z,100.00
2022-12-31T05:33:46.127Z,100.00
2022-12-31T05:36:12.750Z,100.00
2022-12-31T05:38:39.220Z,100.00
2022-12-31T05:41:08.246Z,100.00
2022-12-31T05:43:34.885Z,100.00
2022-12-31T05:46:02.723Z,100.00
2022-12-31T05:48:29.552Z,100.00
2022-12-31T05:50:56.288Z,100.00
2022-12-31T05:53:23.144Z,100.00
2022-12-31T05:55:50.677Z,100.00
2022-12-31T05:58:17.364Z,100.00
2022-12-31T06:00:46.034Z,100.00
2022-12-31T06:03:13.112Z,100.00
2022-12-31T06:05:43.871Z,100.00
2022-12-31T06:08:12.129Z,100.00
2022-12-31T06:10:39.637Z,100.00
2022-12-31T06:13:06.276Z,100.00
2022-12-31T06:15:32.951Z,100.00
2022-12-31T06:17:59.566Z,100.00
2022-12-31T06:20:26.148Z,100.00
2022-12-31T06:22:52.640Z,100.00
2022-12-31T06:25:19.426Z,100.00
2022-12-31T06:27:46.007Z,100.00
2022-12-31T06:30:13.182Z,100.00
2022-12-31T06:32:40.962Z,100.00
2022-12-31T06:35:08.297Z,100.00
2022-12-31T06:37:34.898Z,100.00
2022-12-31T06:40:01.490Z,100.00
2022-12-31T06:42:30.834Z,100.00
2022-12-31T06:44:58.448Z,100.00
2022-12-31T06:47:25.072Z,100.00
2022-12-31T06:49:52.299Z,100.00
2022-12-31T06:52:18.933Z,100.00
2022-12-31T06:54:45.684Z,100.00
2022-12-31T06:57:12.511Z,100.00
2022-12-31T06:59:39.463Z,100.00
2022-12-31T07:02:26.685Z,100.00
2022-12-31T07:05:10.080Z,100.00
2022-12-31T07:07:56.140Z,100.00
2022-12-31T07:10:42.860Z,100.00
2022-12-31T07:13:45.834Z,100.00
2022-12-31T07:16:49.372Z,100.00
2022-12-31T07:19:45.424Z,100.00
2022-12-31T07:22:15.348Z,100.00
2022-12-31T07:24:45.856Z,100.00
2022-12-31T07:27:12.344Z,100.00
2022-12-31T07:30:00.744Z,100.00
2022-12-31T07:32:36.620Z,100.00
2022-12-31T07:35:06.974Z,100.00
2022-12-31T07:37:50.619Z,100.00
2022-12-31T07:40:30.918Z,100.00
2022-12-31T07:43:14.038Z,100.00
2022-12-31T07:45:58.935Z,100.00
2022-12-31T07:48:27.612Z,100.00
2022-12-31T07:50:56.562Z,100.00
2022-12-31T07:53:24.515Z,100.00
2022-12-31T07:55:57.373Z,100.00
2022-12-31T07:58:59.247Z,100.00
2022-12-31T08:02:04.648Z,100.00
2022-12-31T08:04:56.371Z,100.00
2022-12-31T08:07:47.728Z,100.00
2022-12-31T08:10:18.307Z,100.00
2022-12-31T08:12:47.003Z,100.00
2022-12-31T08:15:15.597Z,100.00
2022-12-31T08:17:42.671Z,100.00
2022-12-31T08:20:14.738Z,100.00
2022-12-31T08:22:50.197Z,100.00
2022-12-31T08:25:19.984Z,100.00
2022-12-31T08:28:18.098Z,100.00
2022-12-31T08:31:05.617Z,100.00
2022-12-31T08:34:05.493Z,100.00
2022-12-31T08:37:04.741Z,100.00
2022-12-31T08:39:40.300Z,100.00
2022-12-31T08:42:21.561Z,100.00
2022-12-31T08:45:28.081Z,100.00
2022-12-31T08:48:08.781Z,100.00
2022-12-31T08:50:35.582Z,100.00
2022-12-31T08:53:02.448Z,100.00
2022-12-31T08:55:30.564Z,100.00
2022-12-31T08:58:06.305Z,100.00
2022-12-31T09:00:35.167Z,100.00
2022-12-31T09:03:20.058Z,100.00
2022-12-31T09:06:15.482Z,100.00
2022-12-31T09:08:53.550Z,100.00
2022-12-31T09:11:29.227Z,100.00
2022-12-31T09:14:33.316Z,100.00
2022-12-31T09:17:09.013Z,100.00
2022-12-31T09:19:35.651Z,100.00
2022-12-31T09:22:02.555Z,100.00
2022-12-31T09:24:29.315Z,100.00
2022-12-31T09:27:15.401Z,100.00
2022-12-31T09:30:04.495Z,100.00
2022-12-31T09:32:49.526Z,100.00
2022-12-31T09:35:28.939Z,100.00
2022-12-31T09:38:04.128Z,100.00
2022-12-31T09:40:35.694Z,100.00
2022-12-31T09:43:30.001Z,100.00
2022-12-31T09:46:17.951Z,100.00
2022-12-31T09:48:53.909Z,100.00
2022-12-31T09:52:08.852Z,100.00
2022-12-31T09:55:09.727Z,100.00
2022-12-31T09:58:14.796Z,100.00
2022-12-31T10:00:51.099Z,100.00
2022-12-31T10:03:35.661Z,100.00
2022-12-31T10:06:20.231Z,100.00
2022-12-31T10:09:08.545Z,100.00
2022-12-31T10:11:38.060Z,100.00
2022-12-31T10:14:22.379Z,100.00
2022-12-31T10:17:07.682Z,100.00
2022-12-31T10:20:09.617Z,100.00
2022-12-31T10:23:02.388Z,100.00
2022-12-31T10:25:40.762Z,100.00
2022-12-31T10:28:44.911Z,100.00
2022-12-31T10:31:23.595Z,100.00
2022-12-31T10:34:15.234Z,100.00
2022-12-31T10:37:03.214Z,100.00
2022-12-31T10:39:51.063Z,100.00
2022-12-31T10:42:20.277Z,100.00
2022-12-31T10:45:24.023Z,100.00
2022-12-31T10:48:09.317Z,100.00
2022-12-31T10:50:38.510Z,100.00
2022-12-31T10:53:38.204Z,100.00
2022-12-31T10:56:26.006Z,100.00
2022-12-31T10:59:00.442Z,100.00
2022-12-31T11:01:48.225Z,100.00
2022-12-31T11:04:26.953Z,100.00
2022-12-31T11:07:11.685Z,100.00
2022-12-31T11:10:01.072Z,100.00
2022-12-31T11:12:49.712Z,100.00
2022-12-31T11:15:22.161Z,100.00
2022-12-31T11:18:06.838Z,100.00
2022-12-31T11:20:58.225Z,100.00
2022-12-31T11:23:36.065Z,100.00
2022-12-31T11:26:40.786Z,100.00
2022-12-31T11:29:36.218Z,100.00
2022-12-31T11:32:05.932Z,100.00
2022-12-31T11:35:06.251Z,100.00
2022-12-31T11:37:41.855Z,100.00
2022-12-31T11:40:20.201Z,100.00
2022-12-31T11:42:58.855Z,100.00
2022-12-31T11:45:50.386Z,100.00
2022-12-31T11:48:30.631Z,100.00
2022-12-31T11:51:37.769Z,100.00
2022-12-31T11:54:28.948Z,100.00
2022-12-31T11:57:09.367Z,100.00
2022-12-31T11:59:35.908Z,100.00
2022-12-31T12:02:22.288Z,100.00
2022-12-31T12:04:50.929Z,100.00
2022-12-31T12:07:18.481Z,100.00
2022-12-31T12:09:45.789Z,100.00
2022-12-31T12:12:12.401Z,100.00
2022-12-31T12:14:41.611Z,100.00
2022-12-31T12:17:14.830Z,100.00
2022-12-31T12:19:54.426Z,100.00
2022-12-31T12:22:26.453Z,100.00
2022-12-31T12:25:06.091Z,100.00
2022-12-31T12:27:34.923Z,100.00
2022-12-31T12:30:18.793Z,100.00
2022-12-31T12:33:14.468Z,100.00
2022-12-31T12:35:40.994Z,100.00
2022-12-31T12:38:15.523Z,100.00
2022-12-31T12:40:42.077Z,100.00
2022-12-31T12:43:27.177Z,100.00
2022-12-31T12:45:58.883Z,100.00
2022-12-31T12:48:42.656Z,100.00
2022-12-31T12:51:25.613Z,100.00
2022-12-31T12:54:13.893Z,100.00
2022-12-31T12:57:17.228Z,100.00
2022-12-31T13:00:03.414Z,100.00
2022-12-31T13:02:57.141Z,100.00
2022-12-31T13:05:40.282Z,100.00
2022-12-31T13:08:09.632Z,100.00
2022-12-31T13:11:03.794Z,100.00
2022-12-31T13:13:30.319Z,100.00
2022-12-31T13:16:09.023Z,100.00
2022-12-31T13:18:35.556Z,100.00
2022-12-31T13:21:17.287Z,100.00
2022-12-31T13:23:52.273Z,100.00
2022-12-31T13:26:33.988Z,100.00
2022-12-31T13:29:02.693Z,100.00
2022-12-31T13:31:37.612Z,100.00
2022-12-31T13:34:32.005Z,100.00
2022-12-31T13:37:05.603Z,100.00
2022-12-31T13:39:39.784Z,100.00
2022-12-31T13:42:12.295Z,100.00
2022-12-31T13:44:48.150Z,100.00
2022-12-31T13:47:44.611Z,100.00
2022-12-31T13:50:25.055Z,100.00
2022-12-31T13:52:56.707Z,100.00
2022-12-31T13:55:30.294Z,100.00
2022-12-31T13:58:06.645Z,100.00
2022-12-31T14:00:43.411Z,100.00
2022-12-31T14:03:22.199Z,100.00
2022-12-31T14:06:03.373Z,100.00
2022-12-31T14:08:29.996Z,100.00
2022-12-31T14:11:12.259Z,100.00
2022-12-31T14:13:45.920Z,100.00
2022-12-31T14:16:27.606Z,100.00
2022-12-31T14:19:03.655Z,100.00
2022-12-31T14:21:47.854Z,100.00
2022-12-31T14:24:18.788Z,100.00
2022-12-31T14:26:50.469Z,100.00
2022-12-31T14:29:35.553Z,100.00
2022-12-31T14:32:18.446Z,100.00
2022-12-31T14:35:06.767Z,100.00
2022-12-31T14:37:38.716Z,100.00
2022-12-31T14:40:23.647Z,100.00
2022-12-31T14:43:24.311Z,100.00
2022-12-31T14:46:12.222Z,100.00
2022-12-31T14:49:12.970Z,100.00
2022-12-31T14:51:47.203Z,100.00
2022-12-31T14:54:53.413Z,100.00
2022-12-31T15:00:29.244Z,100.00
2022-12-31T15:03:07.167Z,100.00
2022-12-31T15:05:37.085Z,100.00
2022-12-31T15:08:14.390Z,100.00
2022-12-31T15:11:12.269Z,100.00
2022-12-31T15:14:16.491Z,100.00
2022-12-31T15:16:58.275Z,100.00
2022-12-31T15:19:49.602Z,100.00
2022-12-31T15:22:25.453Z,100.00
2022-12-31T15:24:52.196Z,100.00
2022-12-31T15:27:31.506Z,100.00
2022-12-31T15:29:58.092Z,100.00
2022-12-31T15:32:40.516Z,100.00
2022-12-31T15:35:22.043Z,100.00
2022-12-31T15:38:11.040Z,100.00
2022-12-31T15:40:50.485Z,100.00
2022-12-31T15:43:27.834Z,100.00
2022-12-31T15:45:56.663Z,100.00
2022-12-31T15:48:42.077Z,100.00
2022-12-31T15:51:17.665Z,100.00
2022-12-31T15:53:52.706Z,100.00
2022-12-31T15:56:28.238Z,100.00
2022-12-31T15:58:59.118Z,100.00
2022-12-31T16:01:31.345Z,99.91
2022-12-31T16:04:01.887Z,99.13
2022-12-31T16:06:30.478Z,98.38
2022-12-31T16:08:57.731Z,98.28
2022-12-31T16:11:25.157Z,98.13
2022-12-31T16:13:55.748Z,97.35
2022-12-31T16:16:31.473Z,96.95
2022-12-31T16:18:59.020Z,96.67
2022-12-31T16:21:34.735Z,96.72
2022-12-31T16:24:06.860Z,96.50
2022-12-31T16:26:45.636Z,95.96
2022-12-31T16:29:15.202Z,95.93
2022-12-31T16:31:44.595Z,95.18
2022-12-31T16:34:17.618Z,95.54
2022-12-31T16:37:01.459Z,95.41
2022-12-31T16:39:51.207Z,95.05
2022-12-31T16:42:21.011Z,94.16
2022-12-31T16:44:48.844Z,94.31
2022-12-31T16:47:21.405Z,94.14
2022-12-31T16:49:57.129Z,93.43
2022-12-31T16:52:23.900Z,93.45
2022-12-31T16:54:51.265Z,93.36
2022-12-31T16:57:22.866Z,92.78
2022-12-31T16:59:54.806Z,92.05
2022-12-31T17:02:35.323Z,92.02
2022-12-31T17:05:02.566Z,91.59
2022-12-31T17:07:31.635Z,91.56
2022-12-31T17:10:07.218Z,91.46
2022-12-31T17:12:53.016Z,91.56
2022-12-31T17:15:29.277Z,91.45
2022-12-31T17:18:01.205Z,91.45
2022-12-31T17:20:31.055Z,91.55
2022-12-31T17:23:05.428Z,91.30
2022-12-31T17:25:35.829Z,90.58
2022-12-31T17:28:07.366Z,90.34
2022-12-31T17:30:34.685Z,90.43
2022-12-31T17:33:14.429Z,90.84
2022-12-31T17:35:43.365Z,90.48
2022-12-31T17:38:22.356Z,90.52
2022-12-31T17:40:51.689Z,89.85
2022-12-31T17:43:23.678Z,89.72
2022-12-31T17:45:54.638Z,88.86
2022-12-31T17:48:24.378Z,89.68
2022-12-31T17:51:01.216Z,89.77
2022-12-31T17:53:27.874Z,89.30
2022-12-31T17:56:00.494Z,89.24
2022-12-31T17:58:34.720Z,88.94
2022-12-31T18:01:05.121Z,88.18
2022-12-31T18:03:32.018Z,87.92
2022-12-31T18:05:58.614Z,87.61
2022-12-31T18:08:25.153Z,86.59
2022-12-31T18:10:53.547Z,86.27
2022-12-31T18:13:23.185Z,86.00
2022-12-31T18:15:50.108Z,86.12
2022-12-31T18:18:24.376Z,85.81
2022-12-31T18:20:55.258Z,85.75
2022-12-31T18:23:46.242Z,85.99
2022-12-31T18:26:18.436Z,85.50
2022-12-31T18:28:45.902Z,84.14
2022-12-31T18:31:18.472Z,84.80
2022-12-31T18:33:46.921Z,83.94
2022-12-31T18:36:15.553Z,83.57
2022-12-31T18:38:42.601Z,83.17
2022-12-31T18:41:21.264Z,83.24
2022-12-31T18:43:48.702Z,83.29
2022-12-31T18:46:18.089Z,82.55
2022-12-31T18:48:45.238Z,81.53
2022-12-31T18:51:17.511Z,81.63
2022-12-31T18:53:45.125Z,81.47
2022-12-31T18:56:14.517Z,80.67
2022-12-31T18:58:41.656Z,80.85
2022-12-31T19:01:35.227Z,80.65
2022-12-31T19:04:26.597Z,79.80
2022-12-31T19:06:54.174Z,79.93
2022-12-31T19:09:43.909Z,79.59
2022-12-31T19:12:09.899Z,80.00
2022-12-31T19:14:36.511Z,78.62
2022-12-31T19:19:28.439Z,78.58
2022-12-31T19:21:55.017Z,78.84
2022-12-31T19:24:23.938Z,78.38
2022-12-31T19:26:50.875Z,77.61
2022-12-31T19:29:20.006Z,77.22
2022-12-31T19:31:47.515Z,76.95
2022-12-31T19:34:14.468Z,77.20
2022-12-31T19:36:44.238Z,78.09
2022-12-31T19:39:17.308Z,77.16
2022-12-31T19:41:51.454Z,77.27
2022-12-31T19:44:22.999Z,77.42
2022-12-31T19:46:49.573Z,77.24
2022-12-31T19:49:16.539Z,76.95
2022-12-31T19:51:44.800Z,76.25
2022-12-31T19:54:13.654Z,77.03
2022-12-31T19:56:41.028Z,76.46
2022-12-31T19:59:09.600Z,76.36
2022-12-31T20:01:36.183Z,76.76
2022-12-31T20:04:02.807Z,76.01
2022-12-31T20:06:29.262Z,76.44
2022-12-31T20:08:55.834Z,76.20
2022-12-31T20:11:24.523Z,76.18
2022-12-31T20:13:54.927Z,75.93
2022-12-31T20:16:24.672Z,75.80
2022-12-31T20:18:51.254Z,75.80
2022-12-31T20:21:21.163Z,75.44
2022-12-31T20:23:49.712Z,74.88
2022-12-31T20:26:16.854Z,74.50
2022-12-31T20:28:44.449Z,74.35
2022-12-31T20:31:16.857Z,74.90
2022-12-31T20:33:44.619Z,74.91
2022-12-31T20:36:14.995Z,74.40
2022-12-31T20:38:41.870Z,74.95
2022-12-31T20:41:14.486Z,74.59
2022-12-31T20:43:41.492Z,75.00
2022-12-31T20:46:21.942Z,74.71
2022-12-31T20:48:50.482Z,74.95
2022-12-31T20:51:18.166Z,73.88
2022-12-31T20:53:57.248Z,74.59
2022-12-31T20:56:25.978Z,74.23
2022-12-31T20:58:52.602Z,73.58
2022-12-31T21:01:19.763Z,73.08
2022-12-31T21:04:06.949Z,73.53
2022-12-31T21:06:35.191Z,74.13
2022-12-31T21:09:03.942Z,73.40
2022-12-31T21:11:49.536Z,73.67
2022-12-31T21:14:17.230Z,73.47
2022-12-31T21:16:43.859Z,73.07
2022-12-31T21:19:10.611Z,73.50
2022-12-31T21:21:37.584Z,73.74
2022-12-31T21:24:04.625Z,73.95
2022-12-31T21:26:31.305Z,73.99
2022-12-31T21:28:57.968Z,73.13
2022-12-31T21:31:24.648Z,73.54
2022-12-31T21:33:51.322Z,73.36
2022-12-31T21:36:18.148Z,73.47
2022-12-31T21:38:45.309Z,73.35
2022-12-31T21:41:51.237Z,73.63
2022-12-31T21:44:28.411Z,73.42
2022-12-31T21:47:35.633Z,73.10
2022-12-31T21:50:04.251Z,74.06
2022-12-31T21:52:33.419Z,74.53
2022-12-31T21:55:20.442Z,73.54
2022-12-31T21:58:24.796Z,74.14
2022-12-31T22:00:55.168Z,73.71
2022-12-31T22:03:24.491Z,73.11
2022-12-31T22:05:52.769Z,73.17
2022-12-31T22:08:20.802Z,73.12
2022-12-31T22:10:52.492Z,72.87
2022-12-31T22:13:19.802Z,73.30
2022-12-31T22:15:49.550Z,72.44
2022-12-31T22:18:16.781Z,72.40
2022-12-31T22:20:43.767Z,72.75
2022-12-31T22:23:10.585Z,73.32
2022-12-31T22:25:38.448Z,73.05
2022-12-31T22:28:37.624Z,73.12
2022-12-31T22:30:53.122Z,73.33
2022-12-31T22:33:19.847Z,72.31
2022-12-31T22:36:04.576Z,72.67
2022-12-31T22:38:31.562Z,72.63
2022-12-31T22:41:18.877Z,72.65
2022-12-31T22:43:48.334Z,72.72
2022-12-31T22:46:26.549Z,71.26
2022-12-31T22:48:56.456Z,71.85
2022-12-31T22:51:22.984Z,71.89
2022-12-31T22:53:49.582Z,71.27
2022-12-31T22:56:18.934Z,71.83
2022-12-31T22:58:46.180Z,71.37
2022-12-31T23:01:22.010Z,71.61
2022-12-31T23:03:50.564Z,71.04
2022-12-31T23:06:18.281Z,71.20
2022-12-31T23:09:05.135Z,70.67
2022-12-31T23:11:33.560Z,71.25
2022-12-31T23:14:18.623Z,71.41
2022-12-31T23:17:30.126Z,71.39
2022-12-31T23:20:08.941Z,71.22
2022-12-31T23:22:53.877Z,71.59
2022-12-31T23:25:20.488Z,71.75
2022-12-31T23:27:47.043Z,71.55
2022-12-31T23:30:13.645Z,71.69
2022-12-31T23:32:40.116Z,71.50
2022-12-31T23:35:09.968Z,71.55
2022-12-31T23:37:36.902Z,71.02
2022-12-31T23:40:03.916Z,71.33
2022-12-31T23:42:30.628Z,71.41
2022-12-31T23:44:57.645Z,70.67
2022-12-31T23:47:24.199Z,71.11
2022-12-31T23:49:50.869Z,71.59
2022-12-31T23:52:17.442Z,71.80
2022-12-31T23:54:44.635Z,70.93
2022-12-31T23:57:11.332Z,71.14
2022-12-31T23:59:38.762Z,71.47
